createdAt,value
2022-10-01T00:02:22.798Z,1001.2
2022-10-01T00:07:27.898Z,1001.1
2022-10-01T00:12:32.999Z,1001
2022-10-01T00:17:39.097Z,1000.9
2022-10-01T00:22:45.204Z,1001
2022-10-01T00:27:51.300Z,1000.9
2022-10-01T00:32:57.405Z,1000.9
2022-10-01T00:38:03.492Z,1000.9
2022-10-01T00:43:09.594Z,1000.8
2022-10-01T00:48:15.680Z,1000.8
2022-10-01T00:53:21.779Z,1000.7
2022-10-01T00:58:27.878Z,1000.7
2022-10-01T01:03:33.974Z,1000.7
2022-10-01T01:08:40.082Z,1000.7
2022-10-01T01:13:46.163Z,1000.6
2022-10-01T01:18:51.289Z,1000.7
2022-10-01T01:23:57.393Z,1000.6
2022-10-01T01:29:03.479Z,1000.5
2022-10-01T01:34:09.563Z,1000.4
2022-10-01T01:39:15.673Z,1000.4
2022-10-01T01:44:21.755Z,1000.4
2022-10-01T01:49:27.868Z,1000.4
2022-10-01T01:54:32.977Z,1000.2
2022-10-01T01:59:38.081Z,1000.3
2022-10-01T02:04:43.213Z,1000.3
2022-10-01T02:14:54.419Z,1000.2
2022-10-01T02:19:59.534Z,1000.2
2022-10-01T02:25:04.642Z,1000.2
2022-10-01T02:30:10.746Z,1000.1
2022-10-01T02:35:16.837Z,1000
2022-10-01T02:40:22.924Z,1000.1
2022-10-01T02:45:29.023Z,1000
2022-10-01T02:50:35.130Z,1000
2022-10-01T02:55:41.232Z,999.9
2022-10-01T03:00:47.320Z,999.8
2022-10-01T03:05:53.403Z,999.7
2022-10-01T03:10:59.503Z,999.8
2022-10-01T03:16:05.610Z,999.6
2022-10-01T03:21:11.711Z,999.6
2022-10-01T03:26:17.802Z,999.6
2022-10-01T03:31:22.921Z,999.6
2022-10-01T03:36:29.017Z,999.6
2022-10-01T03:41:35.108Z,999.5
2022-10-01T03:46:41.201Z,999.4
2022-10-01T03:51:47.308Z,999.3
2022-10-01T03:56:53.385Z,999.3
2022-10-01T04:01:59.519Z,999.2
2022-10-01T04:07:04.609Z,999.2
2022-10-01T04:12:09.745Z,999.2
2022-10-01T04:17:14.835Z,999.1
2022-10-01T04:22:19.939Z,999.1
2022-10-01T04:27:26.042Z,999.2
2022-10-01T04:32:32.137Z,999.1
2022-10-01T04:37:38.237Z,999
2022-10-01T04:42:44.351Z,999
2022-10-01T04:47:50.418Z,999
2022-10-01T04:52:56.521Z,998.9
2022-10-01T04:58:02.595Z,998.9
2022-10-01T05:03:08.709Z,998.9
2022-10-01T05:08:14.806Z,998.9
2022-10-01T05:13:20.890Z,998.8
2022-10-01T05:18:26.985Z,998.7
2022-10-01T05:23:33.085Z,998.6
2022-10-01T05:28:38.194Z,998.5
2022-10-01T05:33:44.321Z,998.4
2022-10-01T05:38:50.408Z,998.3
2022-10-01T05:43:56.484Z,998.3
2022-10-01T05:49:02.606Z,998.3
2022-10-01T05:54:08.681Z,998.2
2022-10-01T05:59:14.764Z,998.1
2022-10-01T06:04:19.887Z,998
2022-10-01T06:09:25.026Z,998
2022-10-01T06:14:31.114Z,997.9
2022-10-01T06:19:37.233Z,997.7
2022-10-01T06:24:43.271Z,997.6
2022-10-01T06:29:49.376Z,997.6
2022-10-01T06:34:55.473Z,997.6
2022-10-01T06:40:01.586Z,997.6
2022-10-01T06:45:07.673Z,997.6
2022-10-01T06:50:13.759Z,997.6
2022-10-01T06:55:19.877Z,997.6
2022-10-01T07:00:25.956Z,997.5
2022-10-01T07:05:32.044Z,997.4
2022-10-01T07:10:38.155Z,997.4
2022-10-01T07:15:43.257Z,997.3
2022-10-01T07:20:49.339Z,997.2
2022-10-01T07:25:55.434Z,997.1
2022-10-01T07:31:01.545Z,997.1
2022-10-01T07:36:07.628Z,997.1
2022-10-01T07:41:13.737Z,997.1
2022-10-01T07:46:19.815Z,997.1
2022-10-01T07:51:24.954Z,996.9
2022-10-01T07:56:30.061Z,996.8
2022-10-01T08:01:35.161Z,996.7
2022-10-01T08:06:40.277Z,996.6
2022-10-01T08:11:46.361Z,996.5
2022-10-01T08:16:52.466Z,996.3
2022-10-01T08:21:58.568Z,996.3
2022-10-01T08:27:04.649Z,996.1
2022-10-01T08:32:10.758Z,996.1
2022-10-01T08:37:16.841Z,995.9
2022-10-01T08:42:22.940Z,996
2022-10-01T08:47:29.048Z,996
2022-10-01T08:52:35.127Z,995.9
2022-10-01T08:57:41.232Z,995.9
2022-10-01T09:02:47.323Z,996
2022-10-01T09:07:53.425Z,996
2022-10-01T09:12:58.542Z,996.2
2022-10-01T09:18:04.627Z,996.2
2022-10-01T09:23:10.716Z,996.2
2022-10-01T09:28:16.828Z,996.3
2022-10-01T09:33:22.912Z,996.3
2022-10-01T09:38:29.009Z,996.3
2022-10-01T09:43:35.114Z,996.3
2022-10-01T09:48:40.232Z,996.3
2022-10-01T09:53:45.344Z,996.3
2022-10-01T09:58:50.465Z,996.3
2022-10-01T10:09:01.770Z,996.2
2022-10-01T10:14:07.763Z,996.1
2022-10-01T10:19:13.854Z,996.1
2022-10-01T10:24:20.096Z,996.1
2022-10-01T10:29:26.193Z,996
2022-10-01T10:34:32.205Z,996.1
2022-10-01T10:39:38.387Z,996
2022-10-01T10:44:44.477Z,996
2022-10-01T10:49:50.574Z,996
2022-10-01T10:54:56.520Z,996
2022-10-01T11:00:02.705Z,996
2022-10-01T11:05:08.758Z,995.9
2022-10-01T11:10:13.811Z,995.9
2022-10-01T11:15:19.969Z,995.8
2022-10-01T11:20:26.007Z,995.9
2022-10-01T11:25:32.112Z,995.8
2022-10-01T11:30:38.197Z,995.8
2022-10-01T11:35:44.341Z,995.7
2022-10-01T11:40:50.394Z,995.6
2022-10-01T11:45:56.485Z,995.7
2022-10-01T11:51:01.680Z,995.5
2022-10-01T11:56:06.712Z,995.5
2022-10-01T12:01:12.816Z,995.6
2022-10-01T12:06:18.923Z,995.6
2022-10-01T12:11:25.020Z,995.6
2022-10-01T12:16:31.211Z,995.6
2022-10-01T12:21:37.191Z,995.6
2022-10-01T12:26:43.288Z,995.7
2022-10-01T12:31:49.368Z,995.7
2022-10-01T12:36:54.489Z,995.6
2022-10-01T12:42:00.585Z,995.6
2022-10-01T12:47:06.677Z,995.6
2022-10-01T12:52:12.777Z,995.7
2022-10-01T12:57:18.870Z,995.8
2022-10-01T13:02:24.959Z,995.8
2022-10-01T13:07:31.054Z,995.8
2022-10-01T13:12:37.151Z,995.9
2022-10-01T13:17:43.287Z,996
2022-10-01T13:22:49.365Z,995.9
2022-10-01T13:27:55.432Z,995.9
2022-10-01T13:33:01.542Z,995.9
2022-10-01T13:38:06.651Z,995.9
2022-10-01T13:43:11.773Z,995.9
2022-10-01T13:48:17.848Z,996
2022-10-01T13:53:23.985Z,996.1
2022-10-01T13:58:30.047Z,996.1
2022-10-01T14:03:36.154Z,996
2022-10-01T14:08:42.258Z,996.1
2022-10-01T14:13:48.335Z,996.1
2022-10-01T14:18:54.478Z,996.1
2022-10-01T14:24:00.531Z,996.1
2022-10-01T14:29:06.601Z,996
2022-10-01T14:34:12.701Z,996
2022-10-01T14:39:18.802Z,996.1
2022-10-01T14:44:24.951Z,996.1
2022-10-01T14:49:29.999Z,996.1
2022-10-01T14:54:36.099Z,996.1
2022-10-01T14:59:42.200Z,996
2022-10-01T15:04:48.292Z,995.9
2022-10-01T15:09:54.436Z,995.9
2022-10-01T15:15:00.582Z,996
2022-10-01T15:20:06.567Z,996.1
2022-10-01T15:25:11.683Z,996.1
2022-10-01T15:30:16.816Z,996.1
2022-10-01T15:35:22.900Z,996.3
2022-10-01T15:40:28.994Z,996.3
2022-10-01T15:45:35.203Z,996.3
2022-10-01T15:50:41.196Z,996.4
2022-10-01T15:55:47.367Z,996.4
2022-10-01T16:00:53.370Z,996.5
2022-10-01T16:05:59.468Z,996.5
2022-10-01T16:11:05.561Z,996.5
2022-10-01T16:16:11.647Z,996.6
2022-10-01T16:21:17.739Z,996.4
2022-10-01T16:26:23.934Z,996.6
2022-10-01T16:31:29.964Z,996.6
2022-10-01T16:36:35.163Z,996.6
2022-10-01T16:41:41.171Z,996.8
2022-10-01T16:46:47.242Z,996.8
2022-10-01T16:51:53.354Z,997.1
2022-10-01T16:56:59.513Z,997
2022-10-01T17:02:05.551Z,997.2
2022-10-01T17:07:11.613Z,997.3
2022-10-01T17:12:16.735Z,997.3
2022-10-01T17:17:21.888Z,997.3
2022-10-01T17:22:27.928Z,997.5
2022-10-01T17:27:34.110Z,997.5
2022-10-01T17:32:40.128Z,997.6
2022-10-01T17:37:46.207Z,997.7
2022-10-01T17:42:52.313Z,997.8
2022-10-01T17:47:58.400Z,997.9
2022-10-01T17:53:04.501Z,997.9
2022-10-01T17:58:10.636Z,998
2022-10-01T18:03:16.684Z,998.1
2022-10-01T18:08:22.784Z,998.3
2022-10-01T18:13:29.011Z,998.4
2022-10-01T18:18:35.117Z,998.4
2022-10-01T18:23:40.231Z,998.5
2022-10-01T18:28:46.346Z,998.5
2022-10-01T18:33:52.265Z,998.6
2022-10-01T18:38:58.517Z,998.7
2022-10-01T18:44:04.477Z,998.8
2022-10-01T18:49:10.560Z,998.8
2022-10-01T18:54:16.646Z,999
2022-10-01T18:59:22.738Z,999
2022-10-01T19:04:28.926Z,999.2
2022-10-01T19:09:34.957Z,999.2
2022-10-01T19:14:41.031Z,999.3
2022-10-01T19:19:47.118Z,999.4
2022-10-01T19:24:53.213Z,999.3
2022-10-01T19:29:58.327Z,999.3
2022-10-01T19:35:04.420Z,999.4
2022-10-01T19:40:10.552Z,999.6
2022-10-01T19:45:16.641Z,999.6
2022-10-01T19:50:22.713Z,999.6
2022-10-01T19:55:28.803Z,999.7
2022-10-01T20:00:34.887Z,999.9
2022-10-01T20:05:40.987Z,1000
2022-10-01T20:10:47.146Z,1000.1
2022-10-01T20:15:53.304Z,1000.3
2022-10-01T20:20:59.282Z,1000.4
2022-10-01T20:26:05.378Z,1000.5
2022-10-01T20:31:11.471Z,1000.5
2022-10-01T20:36:16.586Z,1000.6
2022-10-01T20:41:22.675Z,1000.6
2022-10-01T20:46:28.786Z,1000.7
2022-10-01T20:51:34.869Z,1000.6
2022-10-01T20:56:40.971Z,1000.9
2022-10-01T21:01:47.060Z,1000.9
2022-10-01T21:06:53.145Z,1001
2022-10-01T21:11:59.234Z,1001
2022-10-01T21:17:05.330Z,1001.1
2022-10-01T21:22:11.448Z,1001.2
2022-10-01T21:27:17.542Z,1001.3
2022-10-01T21:32:23.630Z,1001.5
2022-10-01T21:37:29.718Z,1001.6
2022-10-01T21:42:34.832Z,1001.6
2022-10-01T21:47:40.985Z,1001.8
2022-10-01T21:52:47.037Z,1001.8
2022-10-01T21:57:53.120Z,1001.9
2022-10-01T22:02:59.219Z,1001.9
2022-10-01T22:08:05.319Z,1001.8
2022-10-01T22:13:11.403Z,1002
2022-10-01T22:18:17.490Z,1002.1
2022-10-01T22:23:23.604Z,1002.1
2022-10-01T22:28:29.699Z,1002.2
2022-10-01T22:33:35.798Z,1002.2
2022-10-01T22:38:41.891Z,1002.3
2022-10-01T22:43:47.973Z,1002.4
2022-10-01T22:48:53.123Z,1002.5
2022-10-01T22:53:59.191Z,1002.5
2022-10-01T22:59:05.317Z,1002.6
2022-10-01T23:04:11.376Z,1002.7
2022-10-01T23:09:17.473Z,1002.8
2022-10-01T23:14:23.560Z,1002.9
2022-10-01T23:19:29.666Z,1002.9
2022-10-01T23:24:35.741Z,1003
2022-10-01T23:29:41.859Z,1003.1
2022-10-01T23:34:47.971Z,1003.1
2022-10-01T23:45:00.134Z,1003.3
2022-10-01T23:50:06.226Z,1003.4
2022-10-01T23:55:11.339Z,1003.5
